createdAt,value
2023-05-01T00:01:12.000Z,138
2023-05-01T00:02:28.000Z,139
2023-05-01T00:03:45.000Z,143
2023-05-01T00:05:01.000Z,142
2023-05-01T00:06:16.000Z,144
2023-05-01T00:07:32.000Z,143
2023-05-01T00:08:49.000Z,143
2023-05-01T00:10:05.000Z,142
2023-05-01T00:11:21.000Z,139
2023-05-01T00:12:37.000Z,140
2023-05-01T00:13:53.000Z,143
2023-05-01T00:15:10.000Z,142
2023-05-01T00:16:26.000Z,144
2023-05-01T00:17:42.000Z,143
2023-05-01T00:18:58.000Z,143
2023-05-01T00:20:15.000Z,142
2023-05-01T00:21:31.000Z,139
2023-05-01T00:22:46.000Z,143
2023-05-01T00:24:02.000Z,143
2023-05-01T00:25:19.000Z,143
2023-05-01T00:26:35.000Z,143
2023-05-01T00:27:51.000Z,141
2023-05-01T00:29:07.000Z,138
2023-05-01T00:30:24.000Z,138
2023-05-01T00:31:40.000Z,143
2023-05-01T00:32:56.000Z,142
2023-05-01T00:34:12.000Z,140
2023-05-01T00:35:28.000Z,143
2023-05-01T00:36:45.000Z,142
2023-05-01T00:38:01.000Z,139
2023-05-01T00:39:16.000Z,141
2023-05-01T00:40:32.000Z,142
2023-05-01T00:41:49.000Z,138
2023-05-01T00:43:05.000Z,138
2023-05-01T00:44:21.000Z,137
2023-05-01T00:45:37.000Z,140
2023-05-01T00:46:54.000Z,138
2023-05-01T00:48:10.000Z,140
2023-05-01T00:49:26.000Z,140
2023-05-01T00:50:42.000Z,142
2023-05-01T00:51:59.000Z,139
2023-05-01T00:53:15.000Z,138
2023-05-01T00:54:31.000Z,138
2023-05-01T00:55:46.000Z,143
2023-05-01T00:57:02.000Z,138
2023-05-01T00:58:19.000Z,138
2023-05-01T00:59:35.000Z,143
2023-05-01T01:00:51.000Z,142
2023-05-01T01:02:07.000Z,138
2023-05-01T01:03:24.000Z,142
2023-05-01T01:04:40.000Z,144
2023-05-01T01:05:56.000Z,143
2023-05-01T01:07:12.000Z,143
2023-05-01T01:08:29.000Z,142
2023-05-01T01:09:45.000Z,140
2023-05-01T01:11:01.000Z,139
2023-05-01T01:12:16.000Z,142
2023-05-01T01:13:33.000Z,143
2023-05-01T01:14:49.000Z,142
2023-05-01T01:16:04.000Z,138
2023-05-01T01:17:20.000Z,139
2023-05-01T01:18:37.000Z,143
2023-05-01T01:19:53.000Z,142
2023-05-01T01:21:09.000Z,142
2023-05-01T01:22:25.000Z,143
2023-05-01T01:23:41.000Z,142
2023-05-01T01:24:58.000Z,139
2023-05-01T01:26:14.000Z,143
2023-05-01T01:27:30.000Z,143
2023-05-01T01:28:46.000Z,143
2023-05-01T01:30:03.000Z,142
2023-05-01T01:31:19.000Z,139
2023-05-01T01:32:34.000Z,142
2023-05-01T01:33:50.000Z,142
2023-05-01T01:35:07.000Z,137
2023-05-01T01:36:23.000Z,138
2023-05-01T01:37:39.000Z,142
2023-05-01T01:38:55.000Z,142
2023-05-01T01:40:12.000Z,140
2023-05-01T01:42:44.000Z,143
2023-05-01T01:44:00.000Z,143
2023-05-01T01:45:16.000Z,143
2023-05-01T01:46:33.000Z,142
2023-05-01T01:47:49.000Z,141
2023-05-01T01:49:04.000Z,144
2023-05-01T01:50:20.000Z,140
2023-05-01T01:51:37.000Z,144
2023-05-01T01:52:53.000Z,143
2023-05-01T01:54:09.000Z,139
2023-05-01T01:55:25.000Z,142
2023-05-01T01:56:42.000Z,143
2023-05-01T01:57:58.000Z,143
2023-05-01T01:59:14.000Z,142
2023-05-01T02:00:30.000Z,140
2023-05-01T02:01:47.000Z,140
2023-05-01T02:03:03.000Z,140
2023-05-01T02:04:19.000Z,141
2023-05-01T02:05:34.000Z,143
2023-05-01T02:06:50.000Z,144
2023-05-01T02:08:07.000Z,142
2023-05-01T02:09:23.000Z,142
2023-05-01T02:10:39.000Z,142
2023-05-01T02:11:55.000Z,140
2023-05-01T02:13:12.000Z,140
2023-05-01T02:14:28.000Z,141
2023-05-01T02:15:44.000Z,142
2023-05-01T02:17:00.000Z,140
2023-05-01T02:18:17.000Z,143
2023-05-01T02:19:33.000Z,144
2023-05-01T02:20:49.000Z,140
2023-05-01T02:22:04.000Z,140
2023-05-01T02:23:21.000Z,143
2023-05-01T02:24:37.000Z,137
2023-05-01T02:25:53.000Z,142
2023-05-01T02:27:09.726Z,140
2023-05-01T02:28:25.000Z,142
2023-05-01T02:29:42.000Z,139
2023-05-01T02:30:58.000Z,143
2023-05-01T02:32:14.000Z,143
2023-05-01T02:33:30.000Z,137
2023-05-01T02:34:47.000Z,142
2023-05-01T02:36:03.000Z,140
2023-05-01T02:37:19.000Z,142
2023-05-01T02:38:34.000Z,137
2023-05-01T02:39:51.000Z,138
2023-05-01T02:41:07.000Z,140
2023-05-01T02:42:23.000Z,140
2023-05-01T02:43:39.000Z,143
2023-05-01T02:44:56.000Z,142
2023-05-01T02:46:12.000Z,137
2023-05-01T02:47:28.000Z,137
2023-05-01T02:48:44.000Z,142
2023-05-01T02:50:00.000Z,141
2023-05-01T02:51:17.000Z,140
2023-05-01T02:52:33.000Z,139
2023-05-01T02:53:49.000Z,137
2023-05-01T02:55:04.000Z,136
2023-05-01T02:56:21.000Z,138
2023-05-01T02:57:37.000Z,140
2023-05-01T02:58:53.000Z,140
2023-05-01T03:00:09.000Z,136
2023-05-01T03:01:26.000Z,137
2023-05-01T03:02:42.000Z,138
2023-05-01T03:03:58.000Z,141
2023-05-01T03:05:14.000Z,140
2023-05-01T03:06:31.000Z,140
2023-05-01T03:07:47.000Z,139
2023-05-01T03:09:03.000Z,138
2023-05-01T03:10:19.000Z,140
2023-05-01T03:11:35.000Z,140
2023-05-01T03:12:51.000Z,139
2023-05-01T03:14:07.000Z,140
2023-05-01T03:15:23.000Z,140
2023-05-01T03:16:39.000Z,142
2023-05-01T03:17:56.000Z,138
2023-05-01T03:19:12.000Z,140
2023-05-01T03:20:28.000Z,143
2023-05-01T03:21:44.000Z,142
2023-05-01T03:23:01.000Z,137
2023-05-01T03:24:17.000Z,140
2023-05-01T03:25:33.000Z,138
2023-05-01T03:26:49.000Z,142
2023-05-01T03:28:06.000Z,140
2023-05-01T03:29:21.000Z,140
2023-05-01T03:30:37.000Z,143
2023-05-01T03:31:53.000Z,142
2023-05-01T03:33:09.000Z,143
2023-05-01T03:34:26.000Z,146
2023-05-01T03:35:42.000Z,146
2023-05-01T03:36:58.000Z,149
2023-05-01T03:38:14.000Z,150
2023-05-01T03:39:31.000Z,152
2023-05-01T03:40:47.000Z,158
2023-05-01T03:42:03.000Z,127
2023-05-01T03:44:36.000Z,23
2023-05-01T03:45:51.000Z,22
2023-05-01T03:47:07.000Z,24
2023-05-01T03:48:23.000Z,22
2023-05-01T03:49:40.000Z,27
2023-05-01T03:50:56.000Z,38
2023-05-01T03:52:12.000Z,45
2023-05-01T03:53:28.000Z,64
2023-05-01T03:54:44.000Z,70
2023-05-01T03:56:01.000Z,77
2023-05-01T03:57:17.000Z,96
2023-05-01T03:58:33.000Z,113
2023-05-01T03:59:49.000Z,117
2023-05-01T04:01:06.000Z,125
2023-05-01T04:02:21.000Z,149
2023-05-01T04:03:37.000Z,168
2023-05-01T04:04:53.000Z,187
2023-05-01T04:06:10.000Z,200
2023-05-01T04:07:26.000Z,215
2023-05-01T04:08:42.000Z,238
2023-05-01T04:09:58.000Z,253
2023-05-01T04:11:15.000Z,274
2023-05-01T04:12:31.000Z,299
2023-05-01T04:13:47.000Z,322
2023-05-01T04:15:03.000Z,349
2023-05-01T04:16:19.000Z,375
2023-05-01T04:17:36.000Z,404
2023-05-01T04:18:52.000Z,429
2023-05-01T04:20:07.000Z,466
2023-05-01T04:21:23.000Z,495
2023-05-01T04:22:40.000Z,529
2023-05-01T04:23:56.000Z,566
2023-05-01T04:25:12.000Z,604
2023-05-01T04:26:28.000Z,652
2023-05-01T04:27:45.000Z,690
2023-05-01T04:29:01.000Z,731
2023-05-01T04:30:17.000Z,774
2023-05-01T04:31:33.000Z,829
2023-05-01T04:32:50.000Z,888
2023-05-01T04:34:06.000Z,959
2023-05-01T04:35:22.000Z,1029
2023-05-01T04:36:37.000Z,1081
2023-05-01T04:37:53.000Z,1127
2023-05-01T04:39:10.000Z,1173
2023-05-01T04:40:26.000Z,1215
2023-05-01T04:41:42.000Z,1250
2023-05-01T04:42:58.000Z,1280
2023-05-01T04:45:31.000Z,1356
2023-05-01T04:46:47.000Z,1409
2023-05-01T04:48:03.000Z,1440
2023-05-01T04:49:20.000Z,1478
2023-05-01T04:50:36.000Z,1521
2023-05-01T04:51:52.000Z,1562
2023-05-01T04:53:07.000Z,1600
2023-05-01T04:54:24.000Z,1631
2023-05-01T04:55:40.000Z,1671
2023-05-01T04:56:56.000Z,1715
2023-05-01T04:58:12.000Z,1751
2023-05-01T04:59:28.000Z,1788
2023-05-01T05:00:45.000Z,1845
2023-05-01T05:02:01.000Z,1885
2023-05-01T05:03:17.000Z,1919
2023-05-01T05:04:33.000Z,1937
2023-05-01T05:05:50.000Z,1960
2023-05-01T05:07:06.000Z,2010
2023-05-01T05:08:22.000Z,2051
2023-05-01T05:09:38.000Z,2074
2023-05-01T05:10:54.000Z,2114
2023-05-01T05:12:10.000Z,2169
2023-05-01T05:13:26.000Z,2216
2023-05-01T05:14:42.000Z,2272
2023-05-01T05:15:59.000Z,2318
2023-05-01T05:17:15.000Z,2350
2023-05-01T05:18:31.000Z,2420
2023-05-01T05:19:47.000Z,2529
2023-05-01T05:21:03.000Z,2663
2023-05-01T05:22:20.000Z,2762
2023-05-01T05:23:36.000Z,2852
2023-05-01T05:24:52.000Z,2924
2023-05-01T05:26:08.000Z,2913
2023-05-01T05:27:24.000Z,2916
2023-05-01T05:28:40.000Z,2894
2023-05-01T05:29:56.000Z,2922
2023-05-01T05:31:11.000Z,2942
2023-05-01T05:32:28.000Z,2987
2023-05-01T05:33:44.000Z,3134
2023-05-01T05:35:00.000Z,3235
2023-05-01T05:36:16.000Z,3337
2023-05-01T05:37:33.000Z,3373
2023-05-01T05:38:49.000Z,3440
2023-05-01T05:40:05.000Z,3399
2023-05-01T05:41:21.000Z,3433
2023-05-01T05:42:37.000Z,3553
2023-05-01T05:43:54.000Z,3676
2023-05-01T05:45:10.000Z,3731
2023-05-01T05:47:42.000Z,3720
2023-05-01T05:48:58.000Z,3716
2023-05-01T05:50:14.000Z,3724
2023-05-01T05:51:30.000Z,3779
2023-05-01T05:52:46.000Z,3893
2023-05-01T05:54:03.000Z,3969
2023-05-01T05:55:19.000Z,4049
2023-05-01T05:56:35.000Z,4077
2023-05-01T05:57:51.000Z,4156
2023-05-01T05:59:08.000Z,4260
2023-05-01T06:00:24.000Z,4390
2023-05-01T06:01:40.000Z,4475
2023-05-01T06:02:56.000Z,4548
2023-05-01T06:04:12.000Z,4690
2023-05-01T06:05:28.000Z,4747
2023-05-01T06:06:44.000Z,4874
2023-05-01T06:08:00.000Z,4950
2023-05-01T06:09:16.000Z,4981
2023-05-01T06:10:33.000Z,5120
2023-05-01T06:11:49.000Z,5226
2023-05-01T06:13:05.000Z,5298
2023-05-01T06:14:21.000Z,5345
2023-05-01T06:15:38.000Z,5368
2023-05-01T06:16:54.000Z,5409
2023-05-01T06:18:10.000Z,5424
2023-05-01T06:19:26.000Z,5678
2023-05-01T06:20:43.000Z,5771
2023-05-01T06:21:58.000Z,5680
2023-05-01T06:23:14.000Z,5750
2023-05-01T06:24:30.000Z,5822
2023-05-01T06:25:46.000Z,5892
2023-05-01T06:27:03.000Z,5938
2023-05-01T06:28:19.000Z,5957
2023-05-01T06:29:35.000Z,6170
2023-05-01T06:30:51.000Z,6315
2023-05-01T06:32:08.000Z,6354
2023-05-01T06:33:24.000Z,6470
2023-05-01T06:34:40.000Z,6341
2023-05-01T06:35:56.000Z,6378
2023-05-01T06:37:13.000Z,6300
2023-05-01T06:38:29.000Z,6207
2023-05-01T06:39:44.000Z,6191
2023-05-01T06:41:00.000Z,6056
2023-05-01T06:42:17.000Z,5962
2023-05-01T06:43:33.000Z,6220
2023-05-01T06:44:49.000Z,6262
2023-05-01T06:46:05.000Z,6359
2023-05-01T06:47:21.000Z,6496
2023-05-01T06:48:38.000Z,6640
2023-05-01T06:49:54.000Z,6784
2023-05-01T06:51:10.000Z,6892
2023-05-01T06:52:26.000Z,6749
2023-05-01T06:53:43.000Z,6911
2023-05-01T06:54:59.000Z,6963
2023-05-01T06:56:14.000Z,7076
2023-05-01T06:57:30.000Z,7172
2023-05-01T06:58:47.000Z,7283
2023-05-01T07:00:03.000Z,7223
2023-05-01T07:01:19.000Z,7047
2023-05-01T07:02:35.000Z,6912
2023-05-01T07:03:52.000Z,6986
2023-05-01T07:05:08.000Z,7246
2023-05-01T07:06:24.000Z,7424
2023-05-01T07:07:40.000Z,7563
2023-05-01T07:08:56.000Z,7347
2023-05-01T07:10:13.000Z,7267
2023-05-01T07:11:29.000Z,7179
2023-05-01T07:12:44.000Z,7124
2023-05-01T07:14:00.000Z,7253
2023-05-01T07:15:17.000Z,7426
2023-05-01T07:16:33.000Z,7859
2023-05-01T07:17:49.000Z,8056
2023-05-01T07:19:05.000Z,8222
2023-05-01T07:20:22.000Z,8217
2023-05-01T07:21:38.000Z,8350
2023-05-01T07:22:54.000Z,8273
2023-05-01T07:24:10.000Z,8216
2023-05-01T07:25:27.000Z,8380
2023-05-01T07:26:43.000Z,8400
2023-05-01T07:27:59.000Z,8462
2023-05-01T07:29:15.000Z,8504
2023-05-01T07:30:30.000Z,8511
2023-05-01T07:31:47.000Z,8567
2023-05-01T07:33:03.000Z,8442
2023-05-01T07:34:19.000Z,8547
2023-05-01T07:35:35.000Z,8496
2023-05-01T07:36:52.000Z,8456
2023-05-01T07:38:08.000Z,8370
2023-05-01T07:39:24.000Z,8323
2023-05-01T07:40:40.000Z,8349
2023-05-01T07:41:57.000Z,8432
2023-05-01T07:43:13.000Z,8623
2023-05-01T07:44:29.000Z,8941
2023-05-01T07:45:45.000Z,9183
2023-05-01T07:47:01.000Z,9456
2023-05-01T07:48:17.000Z,9538
2023-05-01T07:49:33.000Z,9627
2023-05-01T07:50:49.000Z,9741
2023-05-01T07:52:05.000Z,9656
2023-05-01T07:53:22.000Z,9404
2023-05-01T07:54:38.000Z,9208
2023-05-01T07:55:54.000Z,8994
2023-05-01T07:57:10.000Z,8893
2023-05-01T07:58:27.000Z,8787
2023-05-01T07:59:43.000Z,8382
2023-05-01T08:00:59.000Z,8636
2023-05-01T08:02:15.000Z,8605
2023-05-01T08:03:31.000Z,8735
2023-05-01T08:04:47.000Z,8897
2023-05-01T08:06:03.000Z,9018
2023-05-01T08:07:19.000Z,8913
2023-05-01T08:08:36.000Z,8988
2023-05-01T08:09:52.000Z,9030
2023-05-01T08:11:08.000Z,9151
2023-05-01T08:12:24.000Z,9062
2023-05-01T08:13:40.000Z,9472
2023-05-01T08:14:57.000Z,9622
2023-05-01T08:16:13.000Z,9536
2023-05-01T08:17:29.000Z,9519
2023-05-01T08:18:45.000Z,9557
2023-05-01T08:20:02.000Z,9651
2023-05-01T08:21:17.000Z,9580
2023-05-01T08:22:33.000Z,9801
2023-05-01T08:23:49.000Z,9593
2023-05-01T08:25:06.000Z,9912
2023-05-01T08:26:22.000Z,9991
2023-05-01T08:27:38.000Z,9933
2023-05-01T08:28:54.000Z,9919
2023-05-01T08:30:11.000Z,9920
2023-05-01T08:31:27.000Z,9907
2023-05-01T08:32:43.000Z,10045
2023-05-01T08:33:59.000Z,10029
2023-05-01T08:35:15.000Z,10160
2023-05-01T08:36:32.000Z,10099
2023-05-01T08:37:47.000Z,9843
2023-05-01T08:39:03.000Z,9690
2023-05-01T08:40:19.000Z,9718
2023-05-01T08:41:36.000Z,9926
2023-05-01T08:42:52.000Z,10234
2023-05-01T08:44:08.000Z,10524
2023-05-01T08:45:24.000Z,10695
2023-05-01T08:46:41.000Z,10774
2023-05-01T08:47:57.000Z,10687
2023-05-01T08:49:13.000Z,10722
2023-05-01T08:50:29.000Z,10768
2023-05-01T08:51:45.000Z,10720
2023-05-01T08:53:02.000Z,10450
2023-05-01T08:54:17.000Z,10349
2023-05-01T08:55:33.000Z,10183
2023-05-01T08:56:49.000Z,10235
2023-05-01T08:58:06.000Z,10306
2023-05-01T08:59:22.000Z,10303
2023-05-01T09:00:38.000Z,10287
2023-05-01T09:01:54.000Z,10331
2023-05-01T09:03:11.000Z,10351
2023-05-01T09:04:27.000Z,10408
2023-05-01T09:05:43.000Z,10384
2023-05-01T09:06:59.000Z,10355
2023-05-01T09:08:16.000Z,10448
2023-05-01T09:09:32.000Z,10655
2023-05-01T09:10:48.000Z,10970
2023-05-01T09:12:03.000Z,11236
2023-05-01T09:13:19.000Z,11393
2023-05-01T09:14:36.000Z,11502
2023-05-01T09:15:52.000Z,11643
2023-05-01T09:17:08.000Z,11832
2023-05-01T09:18:24.000Z,12049
2023-05-01T09:19:41.000Z,12178
2023-05-01T09:20:57.000Z,12298
2023-05-01T09:22:13.000Z,12373
2023-05-01T09:23:29.000Z,12416
2023-05-01T09:24:46.000Z,12423
2023-05-01T09:26:02.000Z,12452
2023-05-01T09:27:18.000Z,12485
2023-05-01T09:28:33.000Z,12579
2023-05-01T09:29:50.000Z,12706
2023-05-01T09:31:06.000Z,12748
2023-05-01T09:32:22.000Z,12770
2023-05-01T09:33:38.000Z,12620
2023-05-01T09:34:54.000Z,12338
2023-05-01T09:36:11.000Z,11994
2023-05-01T09:37:27.000Z,11711
2023-05-01T09:38:43.000Z,11639
2023-05-01T09:39:59.000Z,11519
2023-05-01T09:41:16.000Z,11436
2023-05-01T09:42:32.000Z,11591
2023-05-01T09:43:48.000Z,11942
2023-05-01T09:45:03.000Z,11532
2023-05-01T09:46:19.000Z,11191
2023-05-01T09:47:35.000Z,10876
2023-05-01T09:48:51.000Z,10540
2023-05-01T09:50:07.000Z,10397
2023-05-01T09:51:24.000Z,10323
2023-05-01T09:52:40.000Z,9727
2023-05-01T09:53:56.000Z,9094
2023-05-01T09:55:12.000Z,9144
2023-05-01T09:56:29.000Z,8791
2023-05-01T09:57:45.000Z,8513
2023-05-01T09:59:01.000Z,8148
2023-05-01T10:00:17.000Z,7812
2023-05-01T10:01:33.000Z,7628
2023-05-01T10:02:49.000Z,7419
2023-05-01T10:04:05.000Z,7311
2023-05-01T10:05:21.000Z,7354
2023-05-01T10:06:37.000Z,7346
2023-05-01T10:07:54.000Z,7249
2023-05-01T10:09:10.000Z,7048
2023-05-01T10:10:26.000Z,6887
2023-05-01T10:11:42.000Z,6730
2023-05-01T10:12:59.000Z,6556
2023-05-01T10:14:15.000Z,6380
2023-05-01T10:15:31.000Z,6191
2023-05-01T10:16:47.000Z,6000
2023-05-01T10:18:03.000Z,5785
2023-05-01T10:19:19.000Z,5551
2023-05-01T10:20:35.000Z,5343
2023-05-01T10:21:51.000Z,5167
2023-05-01T10:23:07.000Z,5083
2023-05-01T10:24:24.000Z,5105
2023-05-01T10:25:40.000Z,5110
2023-05-01T10:26:56.000Z,5038
2023-05-01T10:28:12.000Z,4991
2023-05-01T10:29:29.000Z,5077
2023-05-01T10:30:45.000Z,5261
2023-05-01T10:32:01.000Z,5523
2023-05-01T10:33:17.000Z,5785
2023-05-01T10:34:34.000Z,6031
2023-05-01T10:35:49.000Z,6245
2023-05-01T10:37:05.000Z,6413
2023-05-01T10:38:21.000Z,6581
2023-05-01T10:39:37.000Z,6784
2023-05-01T10:40:54.000Z,7009
2023-05-01T10:42:10.000Z,7203
2023-05-01T10:43:26.000Z,7471
2023-05-01T10:44:42.000Z,7689
2023-05-01T10:45:59.000Z,8008
2023-05-01T10:47:15.000Z,8309
2023-05-01T10:48:31.000Z,8445
2023-05-01T10:49:47.000Z,8568
2023-05-01T10:51:04.000Z,8766
2023-05-01T10:52:20.000Z,8963
2023-05-01T10:53:35.000Z,9102
2023-05-01T10:54:51.000Z,9263
2023-05-01T10:56:08.000Z,9428
2023-05-01T10:57:24.000Z,9814
2023-05-01T10:58:40.000Z,10046
2023-05-01T10:59:56.000Z,10188
2023-05-01T11:01:12.000Z,10444
2023-05-01T11:02:29.000Z,10517
2023-05-01T11:03:45.000Z,10662
2023-05-01T11:05:01.000Z,10726
2023-05-01T11:06:17.000Z,10829
2023-05-01T11:07:34.000Z,10789
2023-05-01T11:08:50.000Z,11010
2023-05-01T11:10:05.000Z,11176
2023-05-01T11:11:21.000Z,11426
2023-05-01T11:12:38.000Z,11597
2023-05-01T11:13:54.000Z,11731
2023-05-01T11:15:10.000Z,11744
2023-05-01T11:16:26.000Z,11549
2023-05-01T11:17:43.000Z,11440
2023-05-01T11:18:59.000Z,11425
2023-05-01T11:20:15.000Z,11790
2023-05-01T11:21:31.000Z,11651
2023-05-01T11:22:47.000Z,11540
2023-05-01T11:24:04.000Z,11507
2023-05-01T11:25:20.000Z,11419
2023-05-01T11:26:35.000Z,11408
2023-05-01T11:27:51.000Z,11460
2023-05-01T11:29:08.000Z,11128
2023-05-01T11:30:24.000Z,10755
2023-05-01T11:31:40.000Z,10776
2023-05-01T11:32:56.000Z,11189
2023-05-01T11:34:13.000Z,11608
2023-05-01T11:35:29.000Z,11961
2023-05-01T11:36:45.000Z,12008
2023-05-01T11:38:01.000Z,11977
2023-05-01T11:39:18.000Z,12240
2023-05-01T11:40:34.000Z,12218
2023-05-01T11:41:50.000Z,12220
2023-05-01T11:43:06.000Z,12475
2023-05-01T11:44:21.000Z,12352
2023-05-01T11:45:38.000Z,12767
2023-05-01T11:46:54.000Z,12866
2023-05-01T11:48:10.000Z,12998
2023-05-01T11:49:26.000Z,13030
2023-05-01T11:50:43.000Z,13131
2023-05-01T11:51:59.000Z,13114
2023-05-01T11:53:15.000Z,13037
2023-05-01T11:54:31.000Z,12891
2023-05-01T11:55:48.000Z,12787
2023-05-01T11:57:04.000Z,12536
2023-05-01T11:58:20.000Z,12505
2023-05-01T11:59:36.000Z,12427
2023-05-01T12:00:52.000Z,12346
2023-05-01T12:02:08.000Z,12397
2023-05-01T12:03:24.000Z,12392
2023-05-01T12:04:40.000Z,12276
2023-05-01T12:05:56.000Z,12081
2023-05-01T12:07:13.000Z,12082
2023-05-01T12:08:29.000Z,12278
2023-05-01T12:09:45.000Z,12053
2023-05-01T12:11:01.000Z,12052
2023-05-01T12:12:18.000Z,12035
2023-05-01T12:13:34.000Z,12356
2023-05-01T12:14:50.000Z,12657
2023-05-01T12:16:06.000Z,12957
2023-05-01T12:17:22.000Z,13450
2023-05-01T12:18:38.000Z,13441
2023-05-01T12:19:54.000Z,13184
2023-05-01T12:21:10.000Z,12962
2023-05-01T12:22:27.000Z,12620
2023-05-01T12:23:43.000Z,12892
2023-05-01T12:24:59.000Z,13173
2023-05-01T12:26:15.000Z,13158
2023-05-01T12:27:31.000Z,13679
2023-05-01T12:28:48.000Z,14150
2023-05-01T12:30:04.000Z,14080
2023-05-01T12:31:20.000Z,13856
2023-05-01T12:32:36.000Z,13467
2023-05-01T12:33:53.000Z,13424
2023-05-01T12:35:08.000Z,13581
2023-05-01T12:36:24.000Z,14108
2023-05-01T12:37:40.000Z,13697
2023-05-01T12:38:57.000Z,13449
2023-05-01T12:40:13.000Z,13872
2023-05-01T12:41:29.000Z,13935
2023-05-01T12:42:45.000Z,13652
2023-05-01T12:44:02.000Z,13621
2023-05-01T12:45:18.000Z,13782
2023-05-01T12:46:34.000Z,14169
2023-05-01T12:47:50.000Z,14095
2023-05-01T12:49:06.000Z,14861
2023-05-01T12:50:23.000Z,14144
2023-05-01T12:51:38.000Z,13871
2023-05-01T12:52:54.000Z,13428
2023-05-01T12:54:10.000Z,13740
2023-05-01T12:55:27.000Z,14193
2023-05-01T12:56:43.000Z,13784
2023-05-01T12:57:59.000Z,13207
2023-05-01T12:59:15.000Z,12730
2023-05-01T13:00:32.000Z,13363
2023-05-01T13:01:48.000Z,12778
2023-05-01T13:03:04.000Z,12725
2023-05-01T13:04:20.000Z,12296
2023-05-01T13:05:37.000Z,11810
2023-05-01T13:06:53.000Z,11985
2023-05-01T13:08:08.000Z,12284
2023-05-01T13:09:24.000Z,12748
2023-05-01T13:10:40.000Z,12544
2023-05-01T13:11:57.000Z,12216
2023-05-01T13:13:13.000Z,11843
2023-05-01T13:14:29.000Z,11884
2023-05-01T13:15:45.000Z,11950
2023-05-01T13:17:02.000Z,12657
2023-05-01T13:18:18.000Z,12704
2023-05-01T13:19:34.000Z,12746
2023-05-01T13:20:50.000Z,13174
2023-05-01T13:22:07.000Z,13221
2023-05-01T13:23:23.000Z,12787
2023-05-01T13:24:38.000Z,12254
2023-05-01T13:25:54.000Z,11914
2023-05-01T13:27:11.000Z,11662
2023-05-01T13:28:27.000Z,11219
2023-05-01T13:29:43.000Z,10726
2023-05-01T13:30:59.000Z,9847
2023-05-01T13:32:15.000Z,9042
2023-05-01T13:33:32.000Z,8467
2023-05-01T13:34:48.000Z,8210
2023-05-01T13:36:04.000Z,8060
2023-05-01T13:37:20.000Z,7823
2023-05-01T13:38:37.000Z,7526
2023-05-01T13:39:53.000Z,7200
2023-05-01T13:41:08.000Z,6983
2023-05-01T13:42:24.000Z,6741
2023-05-01T13:43:41.000Z,6693
2023-05-01T13:44:57.000Z,6727
2023-05-01T13:46:13.000Z,6677
2023-05-01T13:47:29.000Z,6509
2023-05-01T13:48:46.000Z,6393
2023-05-01T13:50:02.000Z,6321
2023-05-01T13:51:18.000Z,6427
2023-05-01T13:52:34.000Z,6634
2023-05-01T13:53:50.000Z,7013
2023-05-01T13:55:07.000Z,7666
2023-05-01T13:56:23.000Z,8172
2023-05-01T13:57:38.000Z,7953
2023-05-01T13:58:54.000Z,4407
2023-05-01T14:00:11.000Z,30267
2023-05-01T14:01:26.000Z,17030
2023-05-01T14:02:42.000Z,11058
2023-05-01T14:03:58.000Z,11148
2023-05-01T14:05:15.000Z,10708
2023-05-01T14:06:31.000Z,9669
2023-05-01T14:07:47.000Z,9143
2023-05-01T14:09:03.000Z,9040
2023-05-01T14:10:20.000Z,8971
2023-05-01T14:11:36.000Z,8463
2023-05-01T14:12:52.000Z,8195
2023-05-01T14:14:08.000Z,7510
2023-05-01T14:15:24.000Z,6907
2023-05-01T14:16:41.000Z,6506
2023-05-01T14:17:56.000Z,6137
2023-05-01T14:19:12.000Z,5880
2023-05-01T14:20:28.000Z,5441
2023-05-01T14:21:45.000Z,5196
2023-05-01T14:23:01.000Z,5020
2023-05-01T14:24:17.000Z,4974
2023-05-01T14:25:33.000Z,5075
2023-05-01T14:26:50.000Z,5163
2023-05-01T14:28:06.000Z,5255
2023-05-01T14:29:22.000Z,5282
2023-05-01T14:30:38.000Z,5496
2023-05-01T14:31:55.000Z,6176
2023-05-01T14:33:11.000Z,6947
2023-05-01T14:34:26.000Z,7634
2023-05-01T14:35:42.000Z,8165
2023-05-01T14:36:58.000Z,8048
2023-05-01T14:38:15.000Z,7694
2023-05-01T14:39:31.000Z,8495
2023-05-01T14:40:47.000Z,8346
2023-05-01T14:42:03.000Z,8794
2023-05-01T14:43:20.000Z,8362
2023-05-01T14:44:36.000Z,7951
2023-05-01T14:45:52.000Z,7084
2023-05-01T14:47:08.000Z,6406
2023-05-01T14:48:25.000Z,6183
2023-05-01T14:49:41.000Z,6191
2023-05-01T14:50:57.000Z,6104
2023-05-01T14:52:12.000Z,5843
2023-05-01T14:53:29.000Z,5298
2023-05-01T14:54:45.000Z,4801
2023-05-01T14:56:01.000Z,4688
2023-05-01T14:57:17.000Z,4843
2023-05-01T14:58:33.000Z,4919
2023-05-01T14:59:50.000Z,4948
2023-05-01T15:01:06.000Z,4639
2023-05-01T15:02:22.000Z,4276
2023-05-01T15:03:38.000Z,4157
2023-05-01T15:04:55.000Z,4244
2023-05-01T15:06:11.000Z,4379
2023-05-01T15:07:27.000Z,4536
2023-05-01T15:08:42.000Z,4743
2023-05-01T15:09:59.000Z,4981
2023-05-01T15:11:15.000Z,5316
2023-05-01T15:12:31.000Z,5525
2023-05-01T15:13:47.000Z,5686
2023-05-01T15:15:03.000Z,5952
2023-05-01T15:16:20.000Z,6445
2023-05-01T15:17:36.000Z,7199
2023-05-01T15:18:52.000Z,7573
2023-05-01T15:20:08.000Z,7980
2023-05-01T15:21:25.000Z,7999
2023-05-01T15:22:41.000Z,7996
2023-05-01T15:23:57.000Z,8084
2023-05-01T15:25:12.000Z,8244
2023-05-01T15:26:29.000Z,8516
2023-05-01T15:27:45.000Z,8667
2023-05-01T15:29:01.000Z,8592
2023-05-01T15:30:17.000Z,8449
2023-05-01T15:31:34.000Z,8289
2023-05-01T15:32:50.000Z,8059
2023-05-01T15:34:06.000Z,7246
2023-05-01T15:35:22.000Z,10112
2023-05-01T15:36:38.000Z,9051
2023-05-01T15:37:55.000Z,5302
2023-05-01T15:39:11.000Z,6321
2023-05-01T15:40:27.000Z,71600
2023-05-01T15:41:42.000Z,22999
2023-05-01T15:42:59.000Z,76012
2023-05-01T15:44:15.000Z,69679
2023-05-01T15:45:31.000Z,19812
2023-05-01T15:46:47.000Z,68088
2023-05-01T15:48:04.000Z,24804
2023-05-01T15:49:20.000Z,14363
2023-05-01T15:50:36.000Z,12650
2023-05-01T15:51:52.000Z,12173
2023-05-01T15:53:09.000Z,11088
2023-05-01T15:54:25.000Z,10443
2023-05-01T15:55:41.000Z,10033
2023-05-01T15:56:57.000Z,9608
2023-05-01T15:58:12.000Z,9317
2023-05-01T15:59:29.000Z,9091
2023-05-01T16:00:45.000Z,9198
2023-05-01T16:02:01.000Z,8390
2023-05-01T16:03:17.000Z,11619
2023-05-01T16:04:34.000Z,9424
2023-05-01T16:05:50.000Z,9050
2023-05-01T16:07:06.000Z,8735
2023-05-01T16:08:22.000Z,7917
2023-05-01T16:09:39.000Z,7176
2023-05-01T16:10:55.000Z,6311
2023-05-01T16:12:11.000Z,5284
2023-05-01T16:13:27.000Z,4230
2023-05-01T16:14:43.000Z,3361
2023-05-01T16:15:59.000Z,2806
2023-05-01T16:17:15.000Z,2551
2023-05-01T16:18:31.000Z,2462
2023-05-01T16:19:47.000Z,2476
2023-05-01T16:21:04.000Z,2538
2023-05-01T16:22:20.000Z,2602
2023-05-01T16:23:36.000Z,2625
2023-05-01T16:24:52.000Z,2607
2023-05-01T16:26:09.000Z,2547
2023-05-01T16:27:25.000Z,2463
2023-05-01T16:28:41.000Z,2299
2023-05-01T16:29:57.000Z,2005
2023-05-01T16:31:13.000Z,1667
2023-05-01T16:32:29.000Z,1363
2023-05-01T16:33:45.000Z,1158
2023-05-01T16:35:01.000Z,1047
2023-05-01T16:36:18.000Z,1020
2023-05-01T16:37:34.000Z,1021
2023-05-01T16:38:50.000Z,1001
2023-05-01T16:40:06.000Z,941
2023-05-01T16:41:22.000Z,844
2023-05-01T16:42:39.000Z,723
2023-05-01T16:43:55.000Z,615
2023-05-01T16:45:11.000Z,547
2023-05-01T16:46:27.000Z,499
2023-05-01T16:47:43.000Z,459
2023-05-01T16:48:59.000Z,422
2023-05-01T16:50:15.000Z,388
2023-05-01T16:51:31.000Z,360
2023-05-01T16:52:48.000Z,323
2023-05-01T16:54:04.000Z,309
2023-05-01T16:55:20.000Z,292
2023-05-01T16:56:36.000Z,285
2023-05-01T16:57:53.000Z,273
2023-05-01T16:59:09.000Z,262
2023-05-01T17:00:25.000Z,261